Time;durP1;ratioP1;P1;durP2;ratioP2;P2;SDS_P1;SDS_P2;PMS_P1;PMS_P2;Temp;Humidity;BMP_temperature;BMP_pressure;BME280_temperature;BME280_humidity;BME280_pressure;Samples;Min_cycle;Max_cycle;Signal;HPM_P1;HPM_P2
2023/06/27 00:01:24;;;;;;;2.58;1.02;;;12.70;99.90;;;;;;5091837;28;20135;-63
2023/06/27 00:03:51;;;;;;;1.52;0.80;;;12.70;99.90;;;;;;5077271;28;20139;-63
2023/06/27 00:06:21;;;;;;;1.83;0.77;;;12.60;99.90;;;;;;5070308;28;20080;-63
2023/06/27 00:08:48;;;;;;;5.68;1.05;;;12.60;99.90;;;;;;5070281;28;20074;-63
2023/06/27 00:11:14;;;;;;;1.73;0.70;;;12.70;99.90;;;;;;5069482;28;20036;-63
2023/06/27 00:13:41;;;;;;;1.98;0.70;;;12.70;99.90;;;;;;5071345;28;20043;-63
2023/06/27 00:16:15;;;;;;;1.55;1.00;;;12.70;99.90;;;;;;5070085;28;20040;-63
2023/06/27 00:18:47;;;;;;;4.15;1.40;;;12.70;99.90;;;;;;5070564;28;20544;-63
2023/06/27 00:21:17;;;;;;;0.80;0.50;;;12.60;99.90;;;;;;5071457;28;20111;-63
2023/06/27 00:23:44;;;;;;;1.85;0.68;;;12.60;99.90;;;;;;5071064;28;20048;-63
2023/06/27 00:26:12;;;;;;;3.90;0.88;;;12.60;99.90;;;;;;5052808;28;20040;-63
2023/06/27 00:28:38;;;;;;;3.20;1.48;;;12.60;99.90;;;;;;5069802;28;20084;-63
2023/06/27 00:31:04;;;;;;;1.48;0.43;;;12.50;99.90;;;;;;5069729;28;20120;-63
2023/06/27 00:33:30;;;;;;;1.52;0.70;;;12.50;99.90;;;;;;5070583;28;20037;-63
2023/06/27 00:35:55;;;;;;;1.10;0.63;;;12.50;99.90;;;;;;5069713;28;20032;-63
2023/06/27 00:38:21;;;;;;;0.88;0.60;;;12.50;99.90;;;;;;5070829;28;20393;-63
2023/06/27 00:40:47;;;;;;;1.17;0.93;;;12.60;99.90;;;;;;5068947;28;20067;-63
2023/06/27 00:43:13;;;;;;;1.95;1.10;;;12.60;99.90;;;;;;5069571;28;20036;-63
2023/06/27 00:45:39;;;;;;;1.58;0.80;;;12.60;99.90;;;;;;5068809;28;20076;-63
2023/06/27 00:48:05;;;;;;;1.15;0.80;;;12.60;99.90;;;;;;5069372;28;20036;-63
2023/06/27 00:50:31;;;;;;;1.92;0.88;;;12.60;99.90;;;;;;5069296;28;20133;-63
2023/06/27 00:53:02;;;;;;;1.25;0.60;;;12.60;99.90;;;;;;5069918;28;20071;-63
2023/06/27 00:55:30;;;;;;;2.58;0.98;;;12.50;99.90;;;;;;5070688;28;20041;-63
2023/06/27 00:57:55;;;;;;;2.38;1.10;;;12.50;99.90;;;;;;5069338;28;20040;-63
2023/06/27 01:00:22;;;;;;;2.17;1.00;;;12.50;99.90;;;;;;5068609;28;20041;-63
2023/06/27 01:02:48;;;;;;;1.75;0.93;;;12.50;99.90;;;;;;5069198;28;20523;-63
2023/06/27 01:05:15;;;;;;;3.53;1.13;;;12.50;99.90;;;;;;5069262;28;20048;-63
2023/06/27 01:07:44;;;;;;;3.92;1.10;;;12.50;99.90;;;;;;5068417;28;20102;-63
2023/06/27 01:10:34;;;;;;;1.20;0.80;;;12.50;99.90;;;;;;5052558;28;20435;-63
2023/06/27 01:13:20;;;;;;;2.10;0.90;;;12.40;99.90;;;;;;5069208;28;20036;-63
2023/06/27 01:15:46;;;;;;;1.60;1.10;;;12.30;99.90;;;;;;5068753;28;20033;-63
2023/06/27 01:18:12;;;;;;;1.52;0.85;;;12.30;99.90;;;;;;5068997;28;20455;-63
2023/06/27 01:20:43;;;;;;;4.03;1.00;;;12.20;99.90;;;;;;5068447;28;20572;-63
2023/06/27 01:23:09;;;;;;;1.58;0.90;;;12.20;99.90;;;;;;5069304;28;20640;-63
2023/06/27 01:25:37;;;;;;;1.77;0.85;;;12.30;99.90;;;;;;5070356;28;20044;-63
2023/06/27 01:28:05;;;;;;;1.98;1.23;;;12.30;99.90;;;;;;5068408;28;20044;-63
2023/06/27 01:30:33;;;;;;;2.45;1.23;;;12.30;99.90;;;;;;5069107;28;20037;-63
2023/06/27 01:33:17;;;;;;;3.78;1.25;;;12.30;99.90;;;;;;5070262;28;20040;-63
2023/06/27 01:35:53;;;;;;;1.27;0.63;;;12.30;99.90;;;;;;5068523;28;20085;-63
2023/06/27 01:38:30;;;;;;;1.58;1.00;;;12.20;99.90;;;;;;5068831;28;20040;-63
2023/06/27 01:40:57;;;;;;;2.38;0.90;;;12.20;99.90;;;;;;5070268;28;20051;-63
2023/06/27 01:43:24;;;;;;;2.00;1.05;;;12.20;99.90;;;;;;5068438;28;20063;-63
2023/06/27 01:45:50;;;;;;;3.33;1.30;;;12.20;99.90;;;;;;5068695;28;20058;-63
2023/06/27 01:48:17;;;;;;;2.33;1.27;;;12.20;99.90;;;;;;5071152;28;20396;-63
2023/06/27 01:50:42;;;;;;;3.40;1.77;;;12.20;99.90;;;;;;5072185;28;20052;-63
2023/06/27 01:53:08;;;;;;;5.35;1.23;;;12.20;99.90;;;;;;5072536;28;20064;-63
2023/06/27 01:55:34;;;;;;;5.07;1.45;;;12.20;99.90;;;;;;5073058;28;20037;-63
2023/06/27 01:58:01;;;;;;;2.30;1.02;;;12.20;99.90;;;;;;5072919;28;20040;-63
2023/06/27 02:00:27;;;;;;;2.60;1.20;;;12.20;99.90;;;;;;5060699;28;20075;-63
2023/06/27 02:02:53;;;;;;;3.45;1.63;;;12.20;99.90;;;;;;5053048;28;20080;-63
2023/06/27 02:05:19;;;;;;;1.23;0.75;;;12.30;99.90;;;;;;5053956;28;20072;-63
2023/06/27 02:07:45;;;;;;;2.35;1.17;;;12.20;99.90;;;;;;5052530;28;20048;-62
2023/06/27 02:10:11;;;;;;;2.60;1.38;;;12.10;99.90;;;;;;5051802;28;20079;-63
2023/06/27 02:12:37;;;;;;;1.40;0.70;;;12.10;99.90;;;;;;5053575;28;20045;-62
2023/06/27 02:15:03;;;;;;;2.67;1.35;;;12.10;99.90;;;;;;5053539;28;20047;-62
2023/06/27 02:17:29;;;;;;;5.35;1.77;;;12.00;99.90;;;;;;5051624;28;20045;-63
2023/06/27 02:19:54;;;;;;;2.05;1.52;;;12.00;99.90;;;;;;5036036;28;20094;-63
2023/06/27 02:22:20;;;;;;;1.67;0.95;;;12.00;99.90;;;;;;5053774;28;20501;-63
2023/06/27 02:24:46;;;;;;;2.33;1.27;;;11.90;99.90;;;;;;5051568;28;20045;-63
2023/06/27 02:27:13;;;;;;;2.25;1.05;;;11.90;99.90;;;;;;5053441;28;20036;-63
2023/06/27 02:29:38;;;;;;;2.00;1.30;;;11.80;99.90;;;;;;5053258;28;20080;-63
2023/06/27 02:32:05;;;;;;;2.55;1.20;;;11.80;99.90;;;;;;5051688;28;20500;-64
2023/06/27 02:34:31;;;;;;;1.35;0.82;;;11.80;99.90;;;;;;5051894;28;20124;-63
2023/06/27 02:36:56;;;;;;;3.40;1.50;;;11.80;99.90;;;;;;5052330;28;20128;-63
2023/06/27 02:39:22;;;;;;;2.20;1.23;;;11.80;99.90;;;;;;5051572;28;20390;-63
2023/06/27 02:41:48;;;;;;;5.57;1.15;;;11.80;99.90;;;;;;5052086;28;20477;-63
2023/06/27 02:44:14;;;;;;;2.30;1.25;;;11.80;99.90;;;;;;5052999;28;20367;-63
2023/06/27 02:46:40;;;;;;;2.70;1.02;;;11.80;99.90;;;;;;5051244;28;20128;-63
2023/06/27 02:49:05;;;;;;;2.60;1.35;;;11.80;99.90;;;;;;5053084;28;20125;-63
2023/06/27 02:51:31;;;;;;;4.90;1.40;;;11.90;99.90;;;;;;5053107;28;20041;-63
2023/06/27 02:53:57;;;;;;;3.40;1.35;;;11.90;99.90;;;;;;5072756;28;20054;-63
2023/06/27 02:56:23;;;;;;;2.88;1.50;;;12.00;99.90;;;;;;5071472;28;20089;-64
2023/06/27 02:58:49;;;;;;;2.60;1.33;;;12.00;99.90;;;;;;5074440;28;20151;-64
2023/06/27 03:01:15;;;;;;;2.13;1.52;;;12.10;99.90;;;;;;5091765;28;20518;-63
2023/06/27 03:03:43;;;;;;;2.17;0.93;;;12.10;99.90;;;;;;5091732;28;20044;-63
2023/06/27 03:06:09;;;;;;;2.50;1.33;;;12.10;99.90;;;;;;5091002;28;20036;-63
2023/06/27 03:08:39;;;;;;;5.88;1.65;;;12.20;99.90;;;;;;5091542;28;20071;-63
2023/06/27 03:11:05;;;;;;;3.05;1.17;;;12.20;99.90;;;;;;5091681;28;20037;-63
2023/06/27 03:13:31;;;;;;;1.67;0.95;;;12.30;99.90;;;;;;5091147;28;20047;-63
2023/06/27 03:15:56;;;;;;;2.80;1.52;;;12.30;99.90;;;;;;5091541;28;20121;-63
2023/06/27 03:18:22;;;;;;;4.03;1.42;;;12.30;99.90;;;;;;5091486;28;20074;-64
2023/06/27 03:20:48;;;;;;;2.05;1.35;;;12.40;99.90;;;;;;5092004;28;20044;-63
2023/06/27 03:23:14;;;;;;;3.70;1.30;;;12.40;99.90;;;;;;5092762;28;20036;-63
2023/06/27 03:25:40;;;;;;;4.20;1.70;;;12.50;99.90;;;;;;5092532;28;20040;-64
2023/06/27 03:28:06;;;;;;;1.60;1.02;;;12.50;99.90;;;;;;5090890;28;20040;-63
2023/06/27 03:30:32;;;;;;;3.58;1.52;;;12.50;99.90;;;;;;5091346;28;20036;-63
2023/06/27 03:32:58;;;;;;;2.72;1.40;;;12.60;99.90;;;;;;5092432;28;20044;-63
2023/06/27 03:35:24;;;;;;;1.98;1.13;;;12.60;99.90;;;;;;5077568;28;20523;-63
2023/06/27 03:37:51;;;;;;;4.38;1.20;;;12.60;99.90;;;;;;5072047;28;20044;-64
2023/06/27 03:40:17;;;;;;;2.42;1.48;;;12.70;99.90;;;;;;5070516;28;20079;-63
2023/06/27 03:42:43;;;;;;;2.60;1.02;;;12.70;99.90;;;;;;5071244;28;20056;-64
2023/06/27 03:45:09;;;;;;;2.22;1.00;;;12.70;99.90;;;;;;5070746;28;20056;-64
2023/06/27 03:47:37;;;;;;;5.38;0.93;;;12.60;99.90;;;;;;5069957;28;20496;-64
2023/06/27 03:50:03;;;;;;;2.30;1.20;;;12.60;99.90;;;;;;5053996;28;20101;-64
2023/06/27 03:52:29;;;;;;;1.95;1.00;;;12.40;99.90;;;;;;5070109;28;20040;-64
2023/06/27 03:54:55;;;;;;;3.17;1.42;;;12.40;99.90;;;;;;5070205;28;20028;-63
2023/06/27 03:57:20;;;;;;;1.20;0.98;;;12.40;99.90;;;;;;5053550;28;20036;-63
2023/06/27 03:59:46;;;;;;;2.90;1.20;;;12.40;99.90;;;;;;5082043;28;20117;-63
2023/06/27 04:02:12;;;;;;;1.95;1.23;;;12.50;99.90;;;;;;5089706;28;20549;-63
2023/06/27 04:04:38;;;;;;;3.03;1.88;;;12.60;99.90;;;;;;5090538;28;20040;-64
2023/06/27 04:07:04;;;;;;;2.97;1.50;;;12.70;99.90;;;;;;5091571;28;20040;-63
2023/06/27 04:09:30;;;;;;;2.72;1.70;;;12.70;99.90;;;;;;5089885;28;20055;-63
2023/06/27 04:11:58;;;;;;;6.70;1.58;;;12.80;99.90;;;;;;5089986;28;20040;-64
2023/06/27 04:14:24;;;;;;;4.90;1.27;;;12.90;99.90;;;;;;5090214;28;20040;-64
2023/06/27 04:16:50;;;;;;;6.90;1.95;;;12.90;99.90;;;;;;5073038;28;20093;-63
2023/06/27 04:19:16;;;;;;;4.05;2.22;;;13.10;99.90;;;;;;5091697;28;20044;-64
2023/06/27 04:21:41;;;;;;;2.10;1.23;;;13.20;99.90;;;;;;5090504;28;20488;-64
2023/06/27 04:24:10;;;;;;;8.65;1.63;;;13.30;99.90;;;;;;5089459;28;20698;-63
2023/06/27 04:26:36;;;;;;;2.60;1.65;;;13.40;99.90;;;;;;5091403;28;20044;-64
2023/06/27 04:29:03;;;;;;;4.10;1.33;;;13.50;99.90;;;;;;5090098;28;20044;-64
2023/06/27 04:31:28;;;;;;;3.33;1.27;;;13.60;99.90;;;;;;5090640;28;20073;-63
2023/06/27 04:33:59;;;;;;;2.83;1.25;;;13.70;99.90;;;;;;5089919;28;20086;-63
2023/06/27 04:36:28;;;;;;;2.97;1.40;;;13.80;99.90;;;;;;5089943;28;20174;-63
2023/06/27 04:38:54;;;;;;;3.13;1.40;;;13.90;99.90;;;;;;5073301;28;20114;-63
2023/06/27 04:41:20;;;;;;;3.92;1.63;;;14.00;99.90;;;;;;5089983;28;20619;-63
2023/06/27 04:43:46;;;;;;;6.00;1.33;;;14.10;99.90;;;;;;5088590;28;20130;-63
2023/06/27 04:46:12;;;;;;;2.97;1.48;;;14.30;99.90;;;;;;5069426;28;20051;-63
2023/06/27 04:48:38;;;;;;;6.32;2.03;;;14.40;99.90;;;;;;5069244;28;20051;-63
2023/06/27 04:51:03;;;;;;;4.47;1.67;;;14.50;99.90;;;;;;5069852;28;20469;-63
2023/06/27 04:53:30;;;;;;;2.53;1.55;;;14.70;99.90;;;;;;5069044;28;20077;-63
2023/06/27 04:55:56;;;;;;;4.22;1.45;;;14.80;99.90;;;;;;5070763;28;20041;-63
2023/06/27 04:58:22;;;;;;;2.17;1.38;;;14.90;99.90;;;;;;5068606;28;20046;-63
2023/06/27 05:00:48;;;;;;;2.33;1.33;;;15.00;99.90;;;;;;5086001;28;20109;-63
2023/06/27 05:03:14;;;;;;;4.82;1.58;;;15.10;99.90;;;;;;5049153;28;20053;-63
2023/06/27 05:05:40;;;;;;;3.60;1.67;;;15.20;99.90;;;;;;5049756;28;20044;-63
2023/06/27 05:08:07;;;;;;;2.30;1.30;;;15.30;99.90;;;;;;5048996;28;20059;-63
2023/06/27 05:10:33;;;;;;;1.98;1.30;;;15.40;99.90;;;;;;5048878;28;20442;-63
2023/06/27 05:13:00;;;;;;;1.83;1.00;;;15.50;99.90;;;;;;5049602;28;20036;-62
2023/06/27 05:15:26;;;;;;;2.22;0.90;;;15.60;99.90;;;;;;5048644;28;20037;-62
2023/06/27 05:17:54;;;;;;;1.48;0.82;;;15.70;99.90;;;;;;5049808;28;20135;-63
2023/06/27 05:20:20;;;;;;;1.80;1.10;;;15.90;99.90;;;;;;5048474;28;20045;-63
2023/06/27 05:22:46;;;;;;;3.15;1.05;;;16.00;99.90;;;;;;5049234;28;20033;-62
2023/06/27 05:25:12;;;;;;;2.20;0.95;;;16.10;99.90;;;;;;5050210;28;20079;-63
2023/06/27 05:27:38;;;;;;;0.68;0.50;;;16.20;99.90;;;;;;5062955;28;20056;-62
2023/06/27 05:30:05;;;;;;;1.17;0.45;;;16.40;99.90;;;;;;5070102;28;20041;-63
2023/06/27 05:32:31;;;;;;;3.92;0.82;;;16.50;99.90;;;;;;5068153;28;20355;-63
2023/06/27 05:34:57;;;;;;;2.13;0.73;;;16.70;99.90;;;;;;5068469;28;20037;-63
2023/06/27 05:37:23;;;;;;;3.20;0.60;;;16.80;99.90;;;;;;5069958;28;20041;-64
2023/06/27 05:39:49;;;;;;;1.55;0.50;;;17.00;99.90;;;;;;5051432;28;20045;-63
2023/06/27 05:42:15;;;;;;;2.58;0.80;;;17.20;99.90;;;;;;5067221;28;20115;-64
2023/06/27 05:44:40;;;;;;;1.73;0.50;;;17.30;99.90;;;;;;5069932;28;20055;-64
2023/06/27 05:47:06;;;;;;;0.77;0.50;;;17.50;99.90;;;;;;5067799;28;20512;-64
2023/06/27 05:49:32;;;;;;;1.30;0.60;;;17.60;99.90;;;;;;5068418;28;20033;-63
2023/06/27 05:51:58;;;;;;;1.23;0.70;;;17.70;99.90;;;;;;5051796;28;20422;-63
2023/06/27 05:54:24;;;;;;;1.48;0.40;;;17.90;99.90;;;;;;5069122;28;20049;-63
2023/06/27 05:56:50;;;;;;;0.82;0.40;;;18.10;99.90;;;;;;5068787;28;20041;-64
2023/06/27 05:59:16;;;;;;;2.28;0.50;;;18.20;99.90;;;;;;5074657;28;20040;-63
2023/06/27 06:01:41;;;;;;;2.83;0.43;;;18.30;99.90;;;;;;5071256;28;20128;-64
2023/06/27 06:04:08;;;;;;;3.95;0.65;;;18.40;99.90;;;;;;5089020;28;20052;-63
2023/06/27 06:06:37;;;;;;;2.42;0.52;;;18.50;99.90;;;;;;5088759;28;20046;-63
2023/06/27 06:09:06;;;;;;;3.05;0.57;;;18.60;99.90;;;;;;5088228;28;20050;-64
2023/06/27 06:11:36;;;;;;;0.70;0.50;;;18.80;99.90;;;;;;5088781;28;20066;-65
2023/06/27 06:14:02;;;;;;;0.40;0.20;;;19.00;99.90;;;;;;5088753;28;20469;-65
2023/06/27 06:16:31;;;;;;;1.33;0.50;;;19.10;99.90;;;;;;5089457;28;20073;-64
2023/06/27 06:18:57;;;;;;;1.42;0.30;;;19.30;99.90;;;;;;5090034;28;20642;-62
2023/06/27 06:21:23;;;;;;;0.65;0.50;;;19.50;99.90;;;;;;5072021;28;20086;-63
2023/06/27 06:23:49;;;;;;;1.98;0.40;;;19.70;99.90;;;;;;5089203;28;20080;-63
2023/06/27 06:26:15;;;;;;;1.65;0.40;;;19.90;99.90;;;;;;5088537;28;20056;-62
2023/06/27 06:28:41;;;;;;;1.63;0.38;;;20.00;99.90;;;;;;5087809;28;20043;-64
2023/06/27 06:31:07;;;;;;;1.23;0.20;;;20.20;99.90;;;;;;5088556;28;20044;-63
2023/06/27 06:33:32;;;;;;;0.13;0.10;;;20.40;99.90;;;;;;5090666;28;20043;-62
2023/06/27 06:35:58;;;;;;;0.10;0.10;;;20.40;99.90;;;;;;5093221;28;20174;-64
2023/06/27 06:38:25;;;;;;;1.63;0.32;;;20.40;99.90;;;;;;5056003;28;20028;-63
2023/06/27 06:40:51;;;;;;;1.45;0.25;;;20.30;99.90;;;;;;5071676;28;20037;-63
2023/06/27 06:43:17;;;;;;;3.47;0.52;;;20.30;99.90;;;;;;5071269;28;20050;-63
2023/06/27 06:45:42;;;;;;;0.25;0.13;;;20.10;99.90;;;;;;5055355;28;20043;-63
2023/06/27 06:48:08;;;;;;;0.38;0.28;;;20.10;99.90;;;;;;5072910;28;20032;-63
2023/06/27 06:50:35;;;;;;;0.17;0.17;;;20.00;99.90;;;;;;5072659;28;20860;-63
2023/06/27 06:53:00;;;;;;;2.88;0.38;;;20.00;99.90;;;;;;5071312;28;20124;-62
2023/06/27 06:55:26;;;;;;;0.30;0.30;;;20.00;99.90;;;;;;5071581;28;20123;-63
2023/06/27 06:57:52;;;;;;;0.40;0.20;;;20.00;99.90;;;;;;5072282;28;20115;-62
2023/06/27 07:00:18;;;;;;;1.08;0.30;;;20.00;99.90;;;;;;5069543;28;20621;-62
2023/06/27 07:02:44;;;;;;;1.63;0.40;;;19.90;99.90;;;;;;5092010;28;20036;-63
2023/06/27 07:05:12;;;;;;;1.85;0.30;;;19.90;99.80;;;;;;5092661;28;20464;-62
2023/06/27 07:07:37;;;;;;;2.63;0.30;;;19.90;99.70;;;;;;5092784;28;20044;-63
2023/06/27 07:10:04;;;;;;;1.35;0.20;;;19.90;99.30;;;;;;5092943;28;20123;-63
2023/06/27 07:12:29;;;;;;;1.75;0.20;;;19.90;99.40;;;;;;5065397;28;20040;-63
2023/06/27 07:14:55;;;;;;;0.60;0.20;;;20.00;99.00;;;;;;5071477;28;20094;-62
2023/06/27 07:17:21;;;;;;;0.17;0.17;;;20.00;98.90;;;;;;5072669;28;20075;-63
2023/06/27 07:19:48;;;;;;;1.10;0.20;;;20.00;98.70;;;;;;5070702;28;20455;-64
2023/06/27 07:22:26;;;;;;;3.53;0.40;;;20.00;98.50;;;;;;5069523;28;20080;-64
2023/06/27 07:24:53;;;;;;;2.33;0.43;;;20.00;97.40;;;;;;5067625;28;20039;-64
2023/06/27 07:27:19;;;;;;;1.23;0.57;;;19.90;97.80;;;;;;5070945;28;20040;-63
2023/06/27 07:29:45;;;;;;;2.63;0.30;;;19.80;97.70;;;;;;5071884;28;20047;-63
2023/06/27 07:32:11;;;;;;;0.17;0.10;;;19.90;97.80;;;;;;5070112;28;20473;-63
2023/06/27 07:35:11;;;;;;;2.83;0.30;;;19.90;97.90;;;;;;5071979;28;20036;-64
2023/06/27 07:37:37;;;;;;;0.95;0.20;;;19.90;97.40;;;;;;5061874;28;20036;-63
2023/06/27 07:40:07;;;;;;;0.38;0.30;;;20.00;97.60;;;;;;5069962;28;20417;-63
2023/06/27 07:42:33;;;;;;;0.80;0.20;;;20.10;97.70;;;;;;5070901;28;20048;-63
2023/06/27 07:44:59;;;;;;;1.48;0.28;;;20.20;97.60;;;;;;5052340;28;20102;-62
2023/06/27 07:47:25;;;;;;;1.60;0.43;;;20.30;97.70;;;;;;5050296;28;20036;-63
2023/06/27 07:49:51;;;;;;;0.50;0.50;;;20.40;97.60;;;;;;5052197;28;20048;-63
2023/06/27 07:52:17;;;;;;;1.05;0.32;;;20.50;97.40;;;;;;5050557;28;20080;-62
2023/06/27 07:54:43;;;;;;;2.40;0.40;;;20.60;97.30;;;;;;5054360;28;20481;-63
2023/06/27 07:57:08;;;;;;;0.88;0.20;;;20.70;97.20;;;;;;5053561;28;20082;-63
2023/06/27 07:59:34;;;;;;;0.45;0.13;;;20.80;97.10;;;;;;5060162;28;20048;-63
2023/06/27 08:02:00;;;;;;;0.73;0.35;;;20.90;97.20;;;;;;5069849;28;20052;-63
2023/06/27 08:04:26;;;;;;;0.65;0.55;;;21.10;96.80;;;;;;5053345;28;20052;-63
2023/06/27 08:06:53;;;;;;;1.35;0.40;;;21.10;96.70;;;;;;5070998;28;20040;-63
2023/06/27 08:09:20;;;;;;;2.22;0.82;;;21.20;96.40;;;;;;5069688;28;20076;-63
2023/06/27 08:11:46;;;;;;;1.27;0.20;;;21.20;96.20;;;;;;5070474;28;20047;-63
2023/06/27 08:14:12;;;;;;;1.15;0.45;;;21.20;96.40;;;;;;5069274;28;20032;-62
2023/06/27 08:16:38;;;;;;;0.20;0.10;;;21.40;96.40;;;;;;5068996;28;20036;-63
2023/06/27 08:19:04;;;;;;;0.45;0.20;;;21.70;96.40;;;;;;5069997;28;20051;-62
2023/06/27 08:21:30;;;;;;;1.40;0.10;;;22.10;96.60;;;;;;5070602;28;20080;-63
2023/06/27 08:23:55;;;;;;;1.00;0.20;;;22.50;96.60;;;;;;5053374;28;20044;-64
2023/06/27 08:26:21;;;;;;;2.38;0.40;;;22.70;96.20;;;;;;5070060;28;20147;-63
2023/06/27 08:28:47;;;;;;;0.30;0.20;;;22.80;96.10;;;;;;5069077;28;20468;-63
2023/06/27 08:31:13;;;;;;;0.52;0.30;;;22.80;96.10;;;;;;5069680;28;20076;-63
2023/06/27 08:33:39;;;;;;;1.10;0.50;;;22.80;96.00;;;;;;5069562;28;20115;-62
2023/06/27 08:36:06;;;;;;;0.30;0.20;;;22.60;95.50;;;;;;5069394;28;20070;-62
2023/06/27 08:38:32;;;;;;;0.55;0.20;;;22.30;95.50;;;;;;5069419;28;20036;-63
2023/06/27 08:41:01;;;;;;;0.47;0.30;;;22.10;95.50;;;;;;5070941;28;20036;-62
2023/06/27 08:43:27;;;;;;;1.30;0.50;;;22.00;95.50;;;;;;5069153;28;20036;-62
2023/06/27 08:45:54;;;;;;;0.65;0.20;;;21.90;95.30;;;;;;5069789;28;20447;-63
2023/06/27 08:48:21;;;;;;;1.08;0.35;;;21.80;95.20;;;;;;5069694;28;20355;-62
2023/06/27 08:50:52;;;;;;;4.57;0.30;;;21.70;95.10;;;;;;5068598;28;20076;-63
2023/06/27 08:53:26;;;;;;;0.52;0.30;;;21.60;94.90;;;;;;5069183;28;20114;-63
2023/06/27 08:56:01;;;;;;;0.90;0.20;;;21.50;94.80;;;;;;5070155;28;20044;-63
2023/06/27 08:59:05;;;;;;;2.05;0.30;;;21.40;94.30;;;;;;5070333;28;20041;-63
2023/06/27 09:01:34;;;;;;;2.65;0.38;;;21.30;94.50;;;;;;5063100;28;20727;-63
2023/06/27 09:04:01;;;;;;;1.10;0.40;;;21.30;94.50;;;;;;5069091;28;20423;-62
2023/06/27 09:06:28;;;;;;;0.52;0.20;;;21.30;94.10;;;;;;5069149;28;20045;-63
2023/06/27 09:08:54;;;;;;;1.60;0.40;;;21.10;94.00;;;;;;5069331;28;20447;-62
2023/06/27 09:11:21;;;;;;;0.68;0.40;;;21.10;93.90;;;;;;5068464;28;20094;-62
2023/06/27 09:13:47;;;;;;;0.93;0.20;;;21.10;94.00;;;;;;5069110;28;20036;-62
2023/06/27 09:16:14;;;;;;;0.85;0.20;;;21.20;94.10;;;;;;5068860;28;20040;-62
2023/06/27 09:18:40;;;;;;;1.10;0.30;;;21.40;94.20;;;;;;5068634;28;20065;-61
2023/06/27 09:21:06;;;;;;;2.25;0.25;;;21.50;94.10;;;;;;5069009;28;20123;-61
2023/06/27 09:23:32;;;;;;;0.75;0.40;;;21.70;94.30;;;;;;5069825;28;20493;-61
2023/06/27 09:26:12;;;;;;;0.40;0.20;;;21.90;94.20;;;;;;5068735;28;20165;-63
2023/06/27 09:28:49;;;;;;;0.32;0.13;;;22.00;93.50;;;;;;5068775;28;20045;-63
2023/06/27 09:31:20;;;;;;;1.65;0.40;;;22.10;93.30;;;;;;5048286;28;20127;-63
2023/06/27 09:33:47;;;;;;;0.60;0.15;;;22.10;93.30;;;;;;5050036;28;20041;-64
2023/06/27 09:36:36;;;;;;;1.40;0.22;;;22.10;93.10;;;;;;5049874;28;20045;-63
2023/06/27 09:39:04;;;;;;;0.52;0.20;;;22.00;92.80;;;;;;5048320;28;20074;-63
2023/06/27 09:42:01;;;;;;;0.10;0.10;;;21.90;93.10;;;;;;5048945;28;20392;-63
2023/06/27 09:44:27;;;;;;;0.60;0.30;;;22.10;92.90;;;;;;5047796;28;20138;-65
2023/06/27 09:46:53;;;;;;;1.80;0.30;;;22.30;93.30;;;;;;5049041;28;20080;-64
2023/06/27 09:49:21;;;;;;;0.20;0.20;;;22.60;93.10;;;;;;5048824;28;20037;-64
2023/06/27 09:51:50;;;;;;;1.55;0.45;;;22.80;92.50;;;;;;5048358;28;20048;-64
2023/06/27 09:54:25;;;;;;;1.13;0.60;;;22.90;92.40;;;;;;5048570;28;20063;-63
2023/06/27 09:56:52;;;;;;;0.32;0.20;;;23.00;92.10;;;;;;5032047;28;20037;-63
2023/06/27 09:59:23;;;;;;;0.57;0.40;;;23.20;92.20;;;;;;5061081;28;20416;-63
2023/06/27 10:01:50;;;;;;;1.20;0.50;;;23.20;92.00;;;;;;5090004;28;20048;-63
2023/06/27 10:04:18;;;;;;;0.63;0.10;;;23.20;91.70;;;;;;5089062;28;20071;-64
2023/06/27 10:06:43;;;;;;;0.45;0.30;;;23.10;91.20;;;;;;5088307;28;20437;-64
2023/06/27 10:09:10;;;;;;;1.92;0.40;;;23.00;91.30;;;;;;5073926;28;20472;-62
2023/06/27 10:11:37;;;;;;;0.45;0.20;;;23.10;91.60;;;;;;5093953;28;20076;-64
2023/06/27 10:14:03;;;;;;;2.40;0.25;;;23.40;91.40;;;;;;5092044;28;20560;-63
2023/06/27 10:16:30;;;;;;;1.55;0.20;;;23.60;91.00;;;;;;5092586;28;20047;-63
2023/06/27 10:18:56;;;;;;;0.10;0.10;;;23.60;90.80;;;;;;5094064;28;20101;-63
2023/06/27 10:21:24;;;;;;;1.05;0.22;;;23.80;91.10;;;;;;5089398;28;20028;-63
2023/06/27 10:23:54;;;;;;;0.40;0.20;;;24.30;90.90;;;;;;5073657;28;20047;-63
2023/06/27 10:26:25;;;;;;;1.35;0.32;;;24.80;90.80;;;;;;5073368;28;20059;-63
2023/06/27 10:28:52;;;;;;;0.30;0.28;;;25.00;90.10;;;;;;5072662;28;20071;-63
2023/06/27 10:31:42;;;;;;;2.25;0.47;;;24.80;88.70;;;;;;5069434;28;20033;-63
2023/06/27 10:34:10;;;;;;;0.95;0.20;;;24.80;87.70;;;;;;5061755;28;20051;-63
2023/06/27 10:36:57;;;;;;;0.40;0.10;;;24.50;86.70;;;;;;5071816;28;20037;-63
2023/06/27 10:39:34;;;;;;;0.20;0.15;;;24.20;85.30;;;;;;5068386;28;20116;-63
2023/06/27 10:42:06;;;;;;;0.30;0.15;;;24.30;87.90;;;;;;5071457;28;20036;-62
2023/06/27 10:44:49;;;;;;;1.15;0.20;;;24.50;87.60;;;;;;5064545;28;20041;-64
2023/06/27 10:47:15;;;;;;;0.30;0.17;;;24.70;88.00;;;;;;5053098;28;20041;-64
2023/06/27 10:49:46;;;;;;;0.30;0.20;;;24.80;87.40;;;;;;5056859;28;20131;-64
2023/06/27 10:52:23;;;;;;;1.90;0.32;;;24.60;84.70;;;;;;5072974;28;20094;-63
2023/06/27 10:55:14;;;;;;;1.60;0.20;;;24.40;85.00;;;;;;5071020;28;20048;-64
2023/06/27 10:57:43;;;;;;;0.40;0.20;;;24.30;84.20;;;;;;5071749;28;20048;-64
2023/06/27 11:00:26;;;;;;;0.73;0.20;;;24.20;84.80;;;;;;5084870;28;20683;-64
2023/06/27 11:02:55;;;;;;;1.38;0.10;;;24.00;83.70;;;;;;5091072;28;20047;-64
2023/06/27 11:05:36;;;;;;;1.15;0.32;;;24.10;84.00;;;;;;5092984;28;20040;-65
2023/06/27 11:08:03;;;;;;;0.88;0.10;;;24.10;83.50;;;;;;5091681;28;20044;-63
2023/06/27 11:10:29;;;;;;;1.33;0.45;;;24.00;82.80;;;;;;5071871;28;20043;-64
2023/06/27 11:13:23;;;;;;;0.17;0.10;;;23.70;83.00;;;;;;5071149;28;20554;-64
2023/06/27 11:15:54;;;;;;;0.45;0.30;;;23.60;82.40;;;;;;5071071;28;20119;-64
2023/06/27 11:18:21;;;;;;;0.50;0.30;;;23.40;82.90;;;;;;5070610;28;20072;-63
2023/06/27 11:20:49;;;;;;;0.65;0.28;;;23.30;83.40;;;;;;5069394;28;20044;-64
2023/06/27 11:23:16;;;;;;;2.10;0.17;;;23.40;83.50;;;;;;5069894;28;20051;-64
2023/06/27 11:25:44;;;;;;;2.40;0.28;;;23.50;83.90;;;;;;5072361;28;20033;-63
2023/06/27 11:28:11;;;;;;;0.68;0.22;;;23.80;83.00;;;;;;5070896;28;20055;-64
2023/06/27 11:30:37;;;;;;;0.20;0.10;;;24.00;82.00;;;;;;5070327;28;20133;-64
2023/06/27 11:33:03;;;;;;;0.55;0.15;;;24.00;80.40;;;;;;5071171;28;20036;-64
2023/06/27 11:35:31;;;;;;;0.55;0.20;;;23.90;79.60;;;;;;5069473;28;20043;-64
2023/06/27 11:37:57;;;;;;;0.57;0.17;;;23.90;80.10;;;;;;5070373;28;20058;-64
2023/06/27 11:40:24;;;;;;;0.50;0.10;;;23.90;80.30;;;;;;5070524;28;20499;-65
2023/06/27 11:42:51;;;;;;;0.45;0.10;;;24.00;79.60;;;;;;5070653;28;20562;-65
2023/06/27 11:45:17;;;;;;;0.40;0.20;;;23.80;78.50;;;;;;5061344;28;20037;-64
2023/06/27 11:47:45;;;;;;;1.20;0.20;;;23.70;78.20;;;;;;5063162;28;20059;-64
2023/06/27 11:50:12;;;;;;;0.75;0.52;;;23.70;79.40;;;;;;5071704;28;20098;-64
2023/06/27 11:52:41;;;;;;;0.20;0.20;;;23.80;79.50;;;;;;5069651;28;20435;-64
2023/06/27 11:55:07;;;;;;;0.28;0.17;;;23.80;78.70;;;;;;5071397;28;20488;-64
2023/06/27 11:57:51;;;;;;;2.20;0.22;;;23.70;78.40;;;;;;5071076;28;20037;-64
2023/06/27 12:00:25;;;;;;;0.52;0.20;;;23.60;77.30;;;;;;5084947;28;20472;-65
2023/06/27 12:02:52;;;;;;;1.95;0.28;;;23.50;77.00;;;;;;5091059;28;20044;-64
2023/06/27 12:05:20;;;;;;;0.57;0.30;;;23.40;76.70;;;;;;5073142;28;20044;-64
2023/06/27 12:08:04;;;;;;;0.20;0.20;;;23.20;76.50;;;;;;5091985;28;20036;-64
2023/06/27 12:10:54;;;;;;;0.38;0.10;;;23.30;77.90;;;;;;5090445;28;20050;-64
2023/06/27 12:13:20;;;;;;;0.32;0.20;;;23.40;77.00;;;;;;5090081;28;20150;-63
2023/06/27 12:15:47;;;;;;;0.93;0.32;;;23.40;76.60;;;;;;5071994;28;20115;-64
2023/06/27 12:18:32;;;;;;;2.63;0.43;;;23.40;77.20;;;;;;5069899;28;20124;-64
2023/06/27 12:20:59;;;;;;;1.30;0.40;;;23.30;77.90;;;;;;5069958;28;20052;-64
2023/06/27 12:23:28;;;;;;;0.80;0.20;;;23.30;77.50;;;;;;5070099;28;20041;-64
2023/06/27 12:25:54;;;;;;;1.88;0.28;;;23.40;78.00;;;;;;5052574;28;20490;-65
2023/06/27 12:28:23;;;;;;;0.75;0.15;;;23.50;77.60;;;;;;5070043;28;20051;-64
2023/06/27 12:30:49;;;;;;;0.80;0.30;;;23.50;77.30;;;;;;5070761;28;20469;-64
2023/06/27 12:33:15;;;;;;;1.13;0.20;;;23.50;77.10;;;;;;5069231;28;20066;-64
2023/06/27 12:35:41;;;;;;;0.32;0.13;;;23.50;76.90;;;;;;5069785;28;20085;-64
2023/06/27 12:38:07;;;;;;;0.95;0.40;;;23.50;76.60;;;;;;5069599;28;20055;-64
2023/06/27 12:40:33;;;;;;;1.13;0.43;;;23.40;76.80;;;;;;5070545;28;20036;-64
2023/06/27 12:43:00;;;;;;;0.45;0.15;;;23.50;77.20;;;;;;5069528;28;20048;-64
2023/06/27 12:45:26;;;;;;;0.55;0.13;;;23.60;76.40;;;;;;5069541;28;20484;-64
2023/06/27 12:47:52;;;;;;;0.20;0.20;;;23.60;74.60;;;;;;5070207;28;20039;-64
2023/06/27 12:50:18;;;;;;;0.60;0.20;;;23.50;73.80;;;;;;5069255;28;20063;-64
2023/06/27 12:52:48;;;;;;;1.50;0.45;;;23.40;73.90;;;;;;5069423;28;20055;-64